Airfield :







YOU CAN JOIN US ON...

 
LOGIN :

Register | Disclaimer

   EN    FR    IT 

 









Legend :    VFR   Marginal VFR   IFR   Intensive IFR   Very Intensive IFR
Visi :
Ceiling :
>= 8 km
>= 3000ft
5 to 8 km
1000 to 3000 ft
1500m to 5 km
500 to 1000 ft
800 to 1500m
200 to 500 ft
< 800m
< 200 ft
Symbols :   Thunderstorms  Fog  Heavy snow  Heavy precipitations  Wind > 20 kt






- Airport Elevation : 167 ft
- IATA code : YAW


CYAW - CFB Shearwater

CURRENT METAR :
  • 241438Z 14004KT 5SM BR BKN006 19/18 A3033 RMK ST7 DA408FT SLP270

EXPIRED METARs :
  • 241419Z 09003KT 2 1/2SM BR BKN004 19/19 A3033 RMK ST7 DA43 5FT SLP270
  • 241400Z CCA 11003KT 1 1/2SM BR BKN002 18/18 A3032 RMK ST7 DA352FT VIS VRB 1-2 SLP269
  • 241332Z 14002KT 3/4SM BR BKN002 18/18 A3032 RMK ST7 DA352F T VIS VRB 1/2-1 SLP268
  • 241300Z 08002KT 1/4SM FG VV001 17/17 A3031 RMK FG8 DA271FT VIS VRB 1/8-1/2 SLP266
  • 241200Z 07002KT 0SM FG VV001 16/16 A3031 RMK FG8 DA56FT SLP264

TAF AMD TAF CYAW
Valid from the 24 at 13:00 until the 25 at 00:00 UTC


241336Z 2413/2424 VRB03KT 1/2SM FG VV001
BECMG 2413/2415 3SM BR BKN005
BECMG 2415/2416 P6SM NSW BKN010
FM241600 14008KT P6SM SCT009
TEMPO 2416/2418 BKN009
FM241800 14010KT P6SM SCT015
FM242200 12005KT P6SM SCT005
TEMPO 2422/2424 3SM BR BKN005 RMK NXT FCST BY 241800Z
CZQM FIR / North America



MET'MAP, your aeronautical weather chart ! - Copyright ORBIFLY December 2007 - Disclaimer

ORBIFLY MET'MAP TEAM :

Programming & Development : Alexandra Zaïnal
Concept & original design : Baudouin d'Aumeries
Assistance for programming : Marc-Olivier Méhu
Technical & hardware support : Manuel Goepfert

Contact : metmap@orbifly.com




SOURCES & CREDITS :

   NOAA